Pagrindinis puslapis
METAR-TAF:

METAR-TAF

Oro uostai :

Tajuanas, Kinija

platuma: 37-47N, ilguma: 112-33E, Aukštis: 779 m

Dabartinis oras

Ataskaita buvo paskelbta 27 minutes, ne 16:00 UTC
Vėjas 12 kt iš Rytų
Temperatūra 22°C
Drėgmė 46%
Slėgis 1010 hPa
Matomumas 10 km arba daugiau
Mažai debesys ne aukštis 4000 ft
Išsisklaidę debesys ne aukštis 4000 ft, Liūtiniai kamuoliniai debesys.
perkūnija, lietus

METAR: ZBYN 051600Z 09006MPS 9999 -TSRA FEW040 SCT040CB 22/10 Q1010 BECMG TL1630 NSW

Laikas: 00:27 (16:27 UTC)

Prognozė

Ataskaita buvo paskelbta 1 valandą ir 36 minutes, ne 14:51 UTC
Prognozė galioja nuo 05 metu 12 UTC su 06 metu 12 UTC
Vėjas 12 kt iš Rytų su gūsio iki 33 kt
Matomumas: 6000 m
Laikinai
nuo 05 metu 14 UTC su 05 metu 17 UTC
Išsisklaidę debesys ne aukštis 4000 ft, Liūtiniai kamuoliniai debesys.
perkūnija, lietus
Tapsmas
nuo 06 metu 01 UTC su 06 metu 02 UTC
Vėjas 8 kt iš Pietų/Pietvakarių

TAF: ZBYN 051451Z 0512/0612 09006G17MPS 6000 NSC TX36/0607Z TN14/0521Z TEMPO 0514/0517 -TSRA SCT040CB BECMG 0601/0602 21004MPS

Orai ataskaitas ir orų prognozės (METAR, TAF).

turimą stotys yra geltonos ir raudonos taškus žemėlapyje.

Perkelti pele per norėdami pamatyti stoties vardą.

Tada spustelėkite, norėdami matyti oro stebėjimo ir prognozės.

Norėdami pakeisti žemėlapį: spustelėkite ant žalios mygtukų su juodo kryžiaus žemyn,; žalią mygtuką su brūkšneliu, jei norite nutolinti; arba žalių rodyklių gretimoms žemėlapius.


METAR-TAF: